createdAt,value
2022-08-12T00:02:04.183Z,17.10
2022-08-12T00:07:24.786Z,17.11
2022-08-12T00:12:45.069Z,17.05
2022-08-12T00:18:05.674Z,17.16
2022-08-12T00:23:27.622Z,17.10
2022-08-12T00:28:48.313Z,16.87
2022-08-12T00:34:08.225Z,16.52
2022-08-12T00:39:30.065Z,16.62
2022-08-12T00:44:31.729Z,16.72
2022-08-12T00:49:33.527Z,16.49
2022-08-12T00:54:44.357Z,16.28
2022-08-12T00:59:52.899Z,16.55
2022-08-12T01:05:23.319Z,16.50
2022-08-12T01:10:46.063Z,16.47
2022-08-12T01:15:54.359Z,16.07
2022-08-12T01:21:16.681Z,16.17
2022-08-12T01:26:23.684Z,16.34
2022-08-12T01:31:27.744Z,16.22
2022-08-12T01:36:36.806Z,16.11
2022-08-12T01:41:53.751Z,15.86
2022-08-12T01:47:13.926Z,15.86
2022-08-12T01:52:48.492Z,15.93
2022-08-12T01:58:01.403Z,15.70
2022-08-12T02:03:24.825Z,15.64
2022-08-12T02:08:56.889Z,15.52
2022-08-12T02:14:12.786Z,15.50
2022-08-12T02:19:42.352Z,15.58
2022-08-12T02:24:46.700Z,15.52
2022-08-12T02:29:49.315Z,15.64
2022-08-12T02:34:51.423Z,15.26
2022-08-12T02:39:56.521Z,15.21
2022-08-12T02:45:03.514Z,15.35
2022-08-12T02:50:05.666Z,15.41
2022-08-12T02:55:28.789Z,15.26
2022-08-12T03:00:38.328Z,14.94
2022-08-12T03:06:00.546Z,15.04
2022-08-12T03:11:12.156Z,15.19
2022-08-12T03:16:16.666Z,15.12
2022-08-12T03:21:54.625Z,15.03
2022-08-12T03:26:47.175Z,14.94
2022-08-12T03:31:48.704Z,15.20
2022-08-12T03:36:55.407Z,15.17
2022-08-12T03:41:59.892Z,14.96
2022-08-12T03:47:31.361Z,15.17
2022-08-12T03:52:51.174Z,14.93
2022-08-12T03:58:11.417Z,14.88
2022-08-12T04:03:31.545Z,14.84
2022-08-12T04:08:33.491Z,14.56
2022-08-12T04:13:35.084Z,14.70
2022-08-12T04:18:38.786Z,14.59
2022-08-12T04:23:48.367Z,14.49
2022-08-12T04:28:50.336Z,14.62
2022-08-12T04:33:52.122Z,14.74
2022-08-12T04:38:59.437Z,15.06
2022-08-12T04:44:02.575Z,14.94
2022-08-12T04:49:05.523Z,14.81
2022-08-12T04:54:07.260Z,14.78
2022-08-12T04:59:08.850Z,14.88
2022-08-12T05:04:10.918Z,15.09
2022-08-12T05:09:13.657Z,15.32
2022-08-12T05:14:15.997Z,15.31
2022-08-12T05:19:22.387Z,15.30
2022-08-12T05:24:24.353Z,15.70
2022-08-12T05:30:06.859Z,15.71
2022-08-12T05:34:48.502Z,16.06
2022-08-12T05:39:50.411Z,16.19
2022-08-12T05:44:52.245Z,16.52
2022-08-12T05:49:54.091Z,16.57
2022-08-12T05:54:57.814Z,16.96
2022-08-12T05:59:59.705Z,16.96
2022-08-12T06:05:02.425Z,17.40
2022-08-12T06:10:04.520Z,17.83
2022-08-12T06:15:06.550Z,18.82
2022-08-12T06:20:26.632Z,19.88
2022-08-12T06:25:32.153Z,20.31
2022-08-12T06:30:38.592Z,20.17
2022-08-12T06:35:48.657Z,20.71
2022-08-12T06:41:16.038Z,20.61
2022-08-12T06:46:18.001Z,20.82
2022-08-12T06:51:20.686Z,21.54
2022-08-12T06:56:39.841Z,21.86
2022-08-12T07:01:50.634Z,21.96
2022-08-12T07:06:55.816Z,22.59
2022-08-12T07:11:57.365Z,22.43
2022-08-12T07:17:02.411Z,22.15
2022-08-12T07:22:06.525Z,21.88
2022-08-12T07:27:08.279Z,21.49
2022-08-12T07:32:09.833Z,21.51
2022-08-12T07:37:11.385Z,21.23
2022-08-12T07:42:13.098Z,20.98
2022-08-12T07:47:14.757Z,21.22
2022-08-12T07:52:17.040Z,21.56
2022-08-12T07:57:18.739Z,21.73
2022-08-12T08:02:20.506Z,22.34
2022-08-12T08:07:30.639Z,23.11
2022-08-12T08:12:50.945Z,22.74
2022-08-12T08:17:56.572Z,23.32
2022-08-12T08:22:59.443Z,23.48
2022-08-12T08:28:21.386Z,23.60
2022-08-12T08:34:05.471Z,23.50
2022-08-12T08:38:57.714Z,23.82
2022-08-12T08:44:00.485Z,24.40
2022-08-12T08:49:02.188Z,24.38
2022-08-12T08:54:04.117Z,24.82
2022-08-12T08:59:05.728Z,25.22
2022-08-12T09:05:13.031Z,25.65
2022-08-12T09:10:01.317Z,25.46
2022-08-12T09:14:54.329Z,25.38
2022-08-12T09:19:58.255Z,25.41
2022-08-12T09:25:01.243Z,25.76
2022-08-12T09:30:11.927Z,26.92
2022-08-12T09:35:18.555Z,27.59
2022-08-12T09:41:03.789Z,27.10
2022-08-12T09:46:11.901Z,27.14
2022-08-12T09:51:21.867Z,26.68
2022-08-12T09:57:01.039Z,26.38
2022-08-12T10:02:53.159Z,27.24
2022-08-12T10:07:15.039Z,26.90
2022-08-12T10:13:06.836Z,26.03
2022-08-12T10:18:07.986Z,25.68
2022-08-12T10:23:12.710Z,25.70
2022-08-12T10:28:33.267Z,25.63
2022-08-12T10:33:54.964Z,25.26
2022-08-12T10:38:56.663Z,25.15
2022-08-12T10:43:58.451Z,25.36
2022-08-12T10:49:06.617Z,26.35
2022-08-12T10:54:27.042Z,26.58
2022-08-12T10:59:39.115Z,26.61
2022-08-12T11:05:00.382Z,26.70
2022-08-12T11:10:26.552Z,27.00
2022-08-12T11:16:02.557Z,28.02
2022-08-12T11:21:51.263Z,29.05
2022-08-12T11:27:11.034Z,27.85
2022-08-12T11:32:13.326Z,26.95
2022-08-12T11:37:25.446Z,27.44
2022-08-12T11:42:32.438Z,27.71
2022-08-12T11:47:34.566Z,27.70
2022-08-12T11:52:55.981Z,27.48
2022-08-12T11:58:34.002Z,26.99
2022-08-12T12:03:20.336Z,27.95
2022-08-12T12:08:37.501Z,28.83
2022-08-12T12:14:07.813Z,29.42
2022-08-12T12:19:05.537Z,29.06
2022-08-12T12:24:07.299Z,29.49
2022-08-12T12:30:18.971Z,28.61
2022-08-12T12:34:31.431Z,27.64
2022-08-12T12:39:55.249Z,28.28
2022-08-12T12:44:54.855Z,28.43
2022-08-12T12:49:58.770Z,27.87
2022-08-12T12:55:01.089Z,27.65
2022-08-12T13:00:29.429Z,28.21
2022-08-12T13:05:42.602Z,28.13
2022-08-12T13:10:50.255Z,27.70
2022-08-12T13:15:53.886Z,27.71
2022-08-12T13:21:02.251Z,28.49
2022-08-12T13:26:04.041Z,28.24
2022-08-12T13:31:06.484Z,28.11
2022-08-12T13:36:14.176Z,28.55
2022-08-12T13:41:36.477Z,28.33
2022-08-12T13:46:40.858Z,28.57
2022-08-12T13:51:42.708Z,28.41
2022-08-12T13:56:50.193Z,28.43
2022-08-12T14:01:56.753Z,28.19
2022-08-12T14:06:58.422Z,28.27
2022-08-12T14:12:02.092Z,28.18
2022-08-12T14:17:09.827Z,28.11
2022-08-12T14:22:13.820Z,27.87
2022-08-12T14:28:02.614Z,27.71
2022-08-12T14:32:39.100Z,27.82
2022-08-12T14:37:56.642Z,28.03
2022-08-12T14:43:00.561Z,28.15
2022-08-12T14:48:03.551Z,27.83
2022-08-12T14:58:32.564Z,27.63
2022-08-12T15:03:52.504Z,27.94
2022-08-12T15:08:57.575Z,28.05
2022-08-12T15:13:59.804Z,27.96
2022-08-12T15:19:01.439Z,27.88
2022-08-12T15:24:12.940Z,27.95
2022-08-12T15:29:14.620Z,27.86
2022-08-12T15:34:18.671Z,27.91
2022-08-12T15:39:20.929Z,27.92
2022-08-12T15:44:38.842Z,27.78
2022-08-12T15:49:59.943Z,27.59
2022-08-12T15:55:05.105Z,27.50
2022-08-12T16:00:22.224Z,27.31
2022-08-12T16:06:11.079Z,27.66
2022-08-12T16:10:56.354Z,27.50
2022-08-12T16:16:03.262Z,27.48
2022-08-12T16:21:07.568Z,27.56
2022-08-12T16:26:14.677Z,27.41
2022-08-12T16:31:22.938Z,27.33
2022-08-12T16:36:25.607Z,27.37
2022-08-12T16:41:28.196Z,27.27
2022-08-12T16:46:32.428Z,27.23
2022-08-12T16:51:37.564Z,27.17
2022-08-12T16:56:50.868Z,26.91
2022-08-12T17:01:57.669Z,26.87
2022-08-12T17:07:01.408Z,26.85
2022-08-12T17:12:03.624Z,26.85
2022-08-12T17:17:18.645Z,26.78
2022-08-12T17:22:30.410Z,26.75
2022-08-12T17:27:34.121Z,26.69
2022-08-12T17:32:39.643Z,26.59
2022-08-12T17:37:43.077Z,26.44
2022-08-12T17:42:47.589Z,26.39
2022-08-12T17:48:04.991Z,26.38
2022-08-12T17:53:10.979Z,26.13
2022-08-12T17:58:14.014Z,26.10
2022-08-12T18:04:06.970Z,26.07
2022-08-12T18:08:53.572Z,25.85
2022-08-12T18:13:56.940Z,25.59
2022-08-12T18:19:01.982Z,25.54
2022-08-12T18:24:04.548Z,25.21
2022-08-12T18:29:27.263Z,24.97
2022-08-12T18:34:48.208Z,24.67
2022-08-12T18:40:19.589Z,24.41
2022-08-12T18:45:46.511Z,24.27
2022-08-12T18:51:05.257Z,24.14
2022-08-12T18:56:32.523Z,24.22
2022-08-12T19:02:20.851Z,24.00
2022-08-12T19:06:55.757Z,24.00
2022-08-12T19:12:20.221Z,23.88
2022-08-12T19:17:21.989Z,23.71
2022-08-12T19:22:44.051Z,23.58
2022-08-12T19:28:04.211Z,23.41
2022-08-12T19:33:07.205Z,23.12
2022-08-12T19:38:16.440Z,22.97
2022-08-12T19:43:21.805Z,22.78
2022-08-12T19:48:30.589Z,22.45
2022-08-12T19:53:56.740Z,22.27
2022-08-12T19:59:18.689Z,22.23
2022-08-12T20:04:22.583Z,22.16
2022-08-12T20:09:24.356Z,21.88
2022-08-12T20:14:26.579Z,21.59
2022-08-12T20:20:16.766Z,21.40
2022-08-12T20:25:01.597Z,21.37
2022-08-12T20:30:05.438Z,21.22
2022-08-12T20:35:10.220Z,21.26
2022-08-12T20:40:12.466Z,21.23
2022-08-12T20:45:18.521Z,21.06
2022-08-12T20:50:20.780Z,20.95
2022-08-12T20:55:22.636Z,20.91
2022-08-12T21:00:44.160Z,20.80
2022-08-12T21:06:11.974Z,20.77
2022-08-12T21:11:15.343Z,20.46
2022-08-12T21:16:31.533Z,20.42
2022-08-12T21:21:49.740Z,20.21
2022-08-12T21:26:53.867Z,20.09
2022-08-12T21:32:37.899Z,19.90
2022-08-12T21:37:27.663Z,19.77
2022-08-12T21:42:41.966Z,19.76
2022-08-12T21:47:44.652Z,20.19
2022-08-12T21:52:49.251Z,19.90
2022-08-12T21:57:54.920Z,19.60
2022-08-12T22:04:03.896Z,19.34
2022-08-12T22:08:50.690Z,19.52
2022-08-12T22:14:07.455Z,19.62
2022-08-12T22:19:10.292Z,19.47
2022-08-12T22:24:25.939Z,19.27
2022-08-12T22:29:49.404Z,18.80
2022-08-12T22:35:11.023Z,18.70
2022-08-12T22:40:24.032Z,18.96
2022-08-12T22:45:48.345Z,18.89
2022-08-12T22:50:50.405Z,18.89
2022-08-12T22:55:59.576Z,18.77
2022-08-12T23:01:07.947Z,18.51
2022-08-12T23:06:11.379Z,18.66
2022-08-12T23:11:13.047Z,18.56
2022-08-12T23:16:29.381Z,18.37
2022-08-12T23:22:04.146Z,18.07
2022-08-12T23:27:16.690Z,18.14
2022-08-12T23:32:35.953Z,18.47
2022-08-12T23:37:47.595Z,18.04
2022-08-12T23:42:55.575Z,18.25
2022-08-12T23:48:00.470Z,17.95
2022-08-12T23:53:06.730Z,17.89
2022-08-12T23:58:28.164Z,17.63
